createdAt,value
2017-06-09T00:02:19.933Z,56.70
2017-06-09T00:04:48.004Z,56.80
2017-06-09T00:07:16.104Z,56.90
2017-06-09T00:09:44.175Z,56.30
2017-06-09T00:12:12.251Z,57.40
2017-06-09T00:14:40.355Z,58.90
2017-06-09T00:17:08.436Z,59.20
2017-06-09T00:19:36.517Z,59.80
2017-06-09T00:22:04.592Z,58.80
2017-06-09T00:24:32.679Z,58.50
2017-06-09T00:27:00.738Z,58.30
2017-06-09T00:29:28.833Z,57.50
2017-06-09T00:31:56.909Z,57.50
2017-06-09T00:34:25.011Z,56.50
2017-06-09T00:36:53.084Z,54.90
2017-06-09T00:39:21.161Z,55.30
2017-06-09T00:41:49.247Z,54.30
2017-06-09T00:44:17.367Z,54.30
2017-06-09T00:46:45.456Z,53.70
2017-06-09T00:49:13.533Z,54.00
2017-06-09T00:51:41.634Z,54.00
2017-06-09T00:54:09.711Z,54.00
2017-06-09T00:56:37.781Z,54.40
2017-06-09T00:59:05.864Z,54.70
2017-06-09T01:01:33.931Z,54.60
2017-06-09T01:04:02.023Z,54.70
2017-06-09T01:06:30.102Z,54.80
2017-06-09T01:08:58.207Z,54.50
2017-06-09T01:11:26.382Z,55.20
2017-06-09T01:13:54.455Z,54.80
2017-06-09T01:16:22.569Z,54.80
2017-06-09T01:18:50.609Z,54.90
2017-06-09T01:21:18.695Z,54.70
2017-06-09T01:23:46.772Z,54.80
2017-06-09T01:26:14.861Z,54.40
2017-06-09T01:28:42.940Z,54.10
2017-06-09T01:31:11.027Z,53.90
2017-06-09T01:33:39.112Z,53.70
2017-06-09T01:36:07.183Z,53.50
2017-06-09T01:38:35.284Z,53.50
2017-06-09T01:41:03.364Z,53.80
2017-06-09T01:43:31.459Z,54.00
2017-06-09T01:45:59.531Z,53.70
2017-06-09T01:48:27.625Z,53.80
2017-06-09T01:50:55.708Z,53.90
2017-06-09T01:53:23.796Z,53.90
2017-06-09T01:55:51.880Z,53.70
2017-06-09T01:58:19.959Z,53.90
2017-06-09T02:00:48.057Z,53.70
2017-06-09T02:03:16.139Z,53.80
2017-06-09T02:05:44.234Z,54.90
2017-06-09T02:08:12.319Z,54.80
2017-06-09T02:10:40.404Z,54.70
2017-06-09T02:13:08.511Z,55.00
2017-06-09T02:15:36.612Z,55.70
2017-06-09T02:18:04.692Z,55.90
2017-06-09T02:20:32.771Z,58.30
2017-06-09T02:23:00.854Z,59.10
2017-06-09T02:25:28.927Z,59.20
2017-06-09T02:27:57.008Z,59.20
2017-06-09T02:30:25.084Z,58.90
2017-06-09T02:32:53.172Z,59.00
2017-06-09T02:35:21.258Z,59.90
2017-06-09T02:37:49.354Z,59.70
2017-06-09T02:40:17.431Z,59.40
2017-06-09T02:42:45.519Z,60.00
2017-06-09T02:45:13.599Z,59.70
2017-06-09T02:47:41.679Z,60.60
2017-06-09T02:50:09.773Z,61.50
2017-06-09T02:52:37.853Z,61.50
2017-06-09T02:55:05.940Z,62.10
2017-06-09T02:57:34.024Z,62.10
2017-06-09T03:00:02.130Z,62.40
2017-06-09T03:02:30.207Z,62.50
2017-06-09T03:04:58.400Z,63.30
2017-06-09T03:07:26.491Z,63.70
2017-06-09T03:09:54.579Z,64.10
2017-06-09T03:12:22.668Z,63.50
2017-06-09T03:14:50.752Z,66.00
2017-06-09T03:17:18.856Z,65.90
2017-06-09T03:19:46.941Z,65.60
2017-06-09T03:22:15.339Z,67.10
2017-06-09T03:24:43.420Z,66.90
2017-06-09T03:27:11.495Z,67.40
2017-06-09T03:29:39.581Z,67.60
2017-06-09T03:32:13.343Z,68.30
2017-06-09T03:34:41.463Z,67.80
2017-06-09T03:37:09.543Z,66.90
2017-06-09T03:39:37.635Z,66.20
2017-06-09T03:42:05.720Z,65.10
2017-06-09T03:44:33.812Z,65.00
2017-06-09T03:47:01.899Z,63.20
2017-06-09T03:49:29.975Z,63.10
2017-06-09T03:51:58.090Z,63.40
2017-06-09T03:54:26.163Z,63.20
2017-06-09T03:56:54.241Z,62.60
2017-06-09T03:59:22.322Z,62.30
2017-06-09T04:01:50.397Z,61.60
2017-06-09T04:04:18.479Z,60.90
2017-06-09T04:06:46.565Z,59.60
2017-06-09T04:09:14.672Z,59.00
2017-06-09T04:11:42.759Z,57.80
2017-06-09T04:14:10.847Z,57.20
2017-06-09T04:16:38.940Z,57.20
2017-06-09T04:19:07.021Z,57.40
2017-06-09T04:21:35.104Z,57.00
2017-06-09T04:24:03.182Z,57.00
2017-06-09T04:26:31.277Z,57.20
2017-06-09T04:28:59.353Z,57.60
2017-06-09T04:31:27.429Z,57.60
2017-06-09T04:33:55.511Z,57.90
2017-06-09T04:36:23.595Z,56.80
2017-06-09T04:38:51.684Z,56.20
2017-06-09T04:41:19.755Z,56.30
2017-06-09T04:43:47.835Z,56.00
2017-06-09T04:46:15.912Z,55.70
2017-06-09T04:48:44.017Z,55.00
2017-06-09T04:51:12.095Z,55.90
2017-06-09T04:53:40.212Z,54.60
2017-06-09T04:56:08.294Z,53.50
2017-06-09T04:58:36.379Z,53.00
2017-06-09T05:01:04.471Z,53.20
2017-06-09T05:03:32.557Z,52.70
2017-06-09T05:06:00.645Z,53.00
2017-06-09T05:08:28.726Z,52.70
2017-06-09T05:10:56.808Z,52.90
2017-06-09T05:13:24.888Z,53.10
2017-06-09T05:15:52.963Z,53.30
2017-06-09T05:18:21.043Z,52.40
2017-06-09T05:20:54.798Z,51.90
2017-06-09T05:23:22.900Z,51.70
2017-06-09T05:25:50.989Z,52.00
2017-06-09T05:28:26.629Z,52.00
2017-06-09T05:30:54.707Z,52.00
2017-06-09T05:33:22.846Z,52.90
2017-06-09T05:35:50.928Z,52.40
2017-06-09T05:38:19.017Z,52.40
2017-06-09T05:40:47.108Z,51.60
2017-06-09T05:43:15.188Z,51.10
2017-06-09T05:45:43.275Z,51.20
2017-06-09T05:48:11.356Z,50.30
2017-06-09T05:50:39.455Z,50.80
2017-06-09T05:53:07.539Z,51.20
2017-06-09T05:55:35.628Z,49.90
2017-06-09T05:58:03.716Z,49.40
2017-06-09T06:00:31.803Z,49.20
2017-06-09T06:02:59.883Z,48.60
2017-06-09T06:05:27.957Z,49.30
2017-06-09T06:07:56.039Z,48.20
2017-06-09T06:10:24.115Z,48.70
2017-06-09T06:12:52.215Z,47.90
2017-06-09T06:15:20.291Z,47.40
2017-06-09T06:17:48.379Z,47.70
2017-06-09T06:20:16.475Z,48.20
2017-06-09T06:22:44.563Z,46.90
2017-06-09T06:25:12.652Z,47.20
2017-06-09T06:27:40.722Z,46.30
2017-06-09T06:30:08.818Z,46.20
2017-06-09T06:32:36.916Z,45.60
2017-06-09T06:35:05.009Z,45.90
2017-06-09T06:37:33.083Z,44.70
2017-06-09T06:40:01.160Z,45.50
2017-06-09T06:42:29.244Z,44.80
2017-06-09T06:44:57.317Z,44.90
2017-06-09T06:47:25.409Z,45.10
2017-06-09T06:49:53.490Z,43.60
2017-06-09T06:52:21.571Z,44.50
2017-06-09T06:54:49.657Z,43.40
2017-06-09T06:57:17.758Z,42.10
2017-06-09T06:59:45.835Z,42.60
2017-06-09T07:02:13.928Z,43.80
2017-06-09T07:04:42.051Z,42.10
2017-06-09T07:07:10.122Z,41.70
2017-06-09T07:09:38.209Z,41.80
2017-06-09T07:12:06.287Z,41.50
2017-06-09T07:14:34.379Z,42.70
2017-06-09T07:17:02.447Z,42.10
2017-06-09T07:19:30.546Z,41.20
2017-06-09T07:21:58.623Z,40.40
2017-06-09T07:24:26.696Z,40.60
2017-06-09T07:26:54.784Z,41.20
2017-06-09T07:29:22.874Z,40.20
2017-06-09T07:31:50.967Z,41.50
2017-06-09T07:34:19.087Z,39.70
2017-06-09T07:36:47.164Z,38.80
2017-06-09T07:39:15.241Z,39.40
2017-06-09T07:41:43.334Z,39.80
2017-06-09T07:44:11.407Z,40.60
2017-06-09T07:46:39.483Z,38.90
2017-06-09T07:49:07.580Z,37.30
2017-06-09T07:51:35.662Z,36.80
2017-06-09T07:54:03.744Z,36.20
2017-06-09T07:56:31.821Z,37.30
2017-06-09T07:58:59.963Z,37.40
2017-06-09T08:01:28.061Z,37.70
2017-06-09T08:03:56.152Z,37.60
2017-06-09T08:06:24.228Z,38.20
2017-06-09T08:08:52.303Z,37.90
2017-06-09T08:11:20.399Z,38.30
2017-06-09T08:13:48.475Z,36.70
2017-06-09T08:16:16.559Z,36.40
2017-06-09T08:18:44.654Z,38.20
2017-06-09T08:21:12.745Z,37.20
2017-06-09T08:23:40.827Z,36.60
2017-06-09T08:26:08.916Z,36.60
2017-06-09T08:28:36.996Z,33.10
2017-06-09T08:31:05.067Z,33.90
2017-06-09T08:33:33.159Z,33.60
2017-06-09T08:36:01.239Z,32.40
2017-06-09T08:38:29.331Z,31.90
2017-06-09T08:40:57.415Z,32.40
2017-06-09T08:43:25.510Z,33.10
2017-06-09T08:45:53.576Z,33.70
2017-06-09T08:48:21.695Z,31.70
2017-06-09T08:50:49.783Z,31.20
2017-06-09T08:53:17.851Z,29.80
2017-06-09T08:55:45.938Z,30.70
2017-06-09T08:58:14.016Z,30.00
2017-06-09T09:00:42.099Z,30.60
2017-06-09T09:03:10.991Z,29.60
2017-06-09T09:05:39.074Z,30.00
2017-06-09T09:08:07.158Z,28.80
2017-06-09T09:10:35.246Z,28.80
2017-06-09T09:13:03.311Z,30.40
2017-06-09T09:15:31.386Z,29.90
2017-06-09T09:17:59.478Z,29.30
2017-06-09T09:20:27.562Z,31.20
2017-06-09T09:22:55.635Z,29.80
2017-06-09T09:25:23.707Z,28.60
2017-06-09T09:27:51.791Z,28.90
2017-06-09T09:30:19.874Z,28.70
2017-06-09T09:32:47.965Z,29.90
2017-06-09T09:35:16.040Z,29.50
2017-06-09T09:37:44.121Z,29.90
2017-06-09T09:40:12.203Z,30.00
2017-06-09T09:42:40.279Z,30.00
2017-06-09T09:45:08.373Z,30.00
2017-06-09T09:47:36.456Z,28.40
2017-06-09T09:50:04.559Z,28.00
2017-06-09T09:52:32.644Z,28.00
2017-06-09T09:55:00.717Z,28.40
2017-06-09T09:57:28.789Z,30.50
2017-06-09T09:59:56.863Z,28.80
2017-06-09T10:02:24.939Z,28.00
2017-06-09T10:04:53.012Z,28.50
2017-06-09T10:07:21.116Z,29.20
2017-06-09T10:09:49.188Z,28.30
2017-06-09T10:12:17.271Z,28.60
2017-06-09T10:14:45.349Z,27.90
2017-06-09T10:17:13.426Z,26.90
2017-06-09T10:19:41.532Z,27.70
2017-06-09T10:22:09.611Z,26.70
2017-06-09T10:24:37.881Z,26.50
2017-06-09T10:27:06.002Z,27.70
2017-06-09T10:29:34.072Z,26.30
2017-06-09T10:32:02.166Z,26.30
2017-06-09T10:34:30.239Z,26.40
2017-06-09T10:36:58.328Z,26.60
2017-06-09T10:39:26.406Z,26.50
2017-06-09T10:41:54.487Z,24.90
2017-06-09T10:44:22.640Z,25.80
2017-06-09T10:46:50.723Z,26.60
2017-06-09T10:49:18.800Z,26.60
2017-06-09T10:51:46.872Z,27.10
2017-06-09T10:54:14.971Z,26.50
2017-06-09T10:56:43.058Z,27.00
2017-06-09T10:59:11.135Z,28.00
2017-06-09T11:01:39.219Z,27.50
2017-06-09T11:04:07.334Z,28.70
2017-06-09T11:06:35.421Z,25.70
2017-06-09T11:09:03.511Z,27.30
2017-06-09T11:11:31.587Z,27.70
2017-06-09T11:13:59.665Z,27.30
2017-06-09T11:16:27.743Z,26.50
2017-06-09T11:18:55.822Z,27.20
2017-06-09T11:21:23.899Z,28.00
2017-06-09T11:23:51.975Z,27.80
2017-06-09T11:26:20.080Z,27.40
2017-06-09T11:28:48.166Z,28.30
2017-06-09T11:31:16.245Z,27.30
2017-06-09T11:33:44.326Z,27.60
2017-06-09T11:36:12.415Z,26.60
2017-06-09T11:38:40.507Z,27.10
2017-06-09T11:41:08.573Z,27.30
2017-06-09T11:43:36.675Z,27.20
2017-06-09T11:46:04.750Z,27.60
2017-06-09T11:48:32.855Z,28.20
2017-06-09T11:51:00.935Z,28.30
2017-06-09T11:53:29.131Z,27.80
2017-06-09T11:55:57.206Z,29.00
2017-06-09T11:58:25.306Z,30.00
2017-06-09T12:00:53.379Z,30.60
2017-06-09T12:03:21.513Z,29.30
2017-06-09T12:05:57.436Z,29.00
2017-06-09T12:08:26.351Z,30.20
2017-06-09T12:10:54.550Z,31.70
2017-06-09T12:13:23.406Z,30.90
2017-06-09T12:15:51.495Z,30.80
2017-06-09T12:18:29.704Z,30.70
2017-06-09T12:20:58.063Z,30.90
2017-06-09T12:23:26.935Z,32.80
2017-06-09T12:25:56.030Z,32.80
2017-06-09T12:28:24.454Z,32.30
2017-06-09T12:30:52.743Z,33.30
2017-06-09T12:33:20.850Z,33.80
2017-06-09T12:35:48.923Z,34.10
2017-06-09T12:38:17.046Z,34.40
2017-06-09T12:40:45.122Z,35.90
2017-06-09T12:43:13.203Z,35.60
2017-06-09T12:45:41.291Z,35.40
2017-06-09T12:48:10.149Z,37.70
2017-06-09T12:50:38.330Z,37.80
2017-06-09T12:53:06.425Z,38.60
2017-06-09T12:55:34.507Z,40.70
2017-06-09T12:58:02.658Z,41.50
2017-06-09T13:00:31.639Z,43.40
2017-06-09T13:02:59.728Z,43.00
2017-06-09T13:05:27.808Z,43.40
2017-06-09T13:07:55.894Z,43.00
2017-06-09T13:10:23.984Z,43.90
2017-06-09T13:12:52.076Z,43.10
2017-06-09T13:15:20.147Z,45.10
2017-06-09T13:17:48.220Z,44.00
2017-06-09T13:20:16.299Z,46.00
2017-06-09T13:22:44.379Z,46.00
2017-06-09T13:25:12.458Z,46.50
2017-06-09T13:27:40.536Z,45.90
2017-06-09T13:30:08.624Z,46.50
2017-06-09T13:32:36.705Z,45.90
2017-06-09T13:35:04.788Z,46.00
2017-06-09T13:37:32.860Z,46.40
2017-06-09T13:40:00.946Z,48.10
2017-06-09T13:42:29.018Z,49.50
2017-06-09T13:44:57.098Z,50.00
2017-06-09T13:47:25.178Z,50.00
2017-06-09T13:49:53.268Z,48.30
2017-06-09T13:52:21.449Z,49.60
2017-06-09T13:54:49.515Z,50.00
2017-06-09T13:57:17.620Z,49.20
2017-06-09T13:59:45.691Z,50.50
2017-06-09T14:02:13.777Z,49.00
2017-06-09T14:04:41.858Z,49.50
2017-06-09T14:07:09.952Z,49.20
2017-06-09T14:09:38.248Z,49.90
2017-06-09T14:12:06.334Z,50.00
2017-06-09T14:14:34.451Z,50.40
2017-06-09T14:17:02.551Z,49.70
2017-06-09T14:19:30.627Z,50.60
2017-06-09T14:21:58.720Z,50.00
2017-06-09T14:24:26.796Z,48.70
2017-06-09T14:26:54.878Z,47.30
2017-06-09T14:29:22.962Z,48.20
2017-06-09T14:31:51.048Z,48.40
2017-06-09T14:34:19.130Z,48.90
2017-06-09T14:36:47.229Z,49.90
2017-06-09T14:39:15.305Z,50.50
2017-06-09T14:41:43.404Z,50.40
2017-06-09T14:44:11.480Z,50.40
2017-06-09T14:46:39.568Z,49.10
2017-06-09T14:49:07.663Z,48.50
2017-06-09T14:51:35.739Z,48.50
2017-06-09T14:54:03.830Z,49.60
2017-06-09T14:56:31.904Z,50.00
2017-06-09T14:59:00.014Z,48.70
2017-06-09T15:01:28.108Z,49.00
2017-06-09T15:03:56.185Z,49.30
2017-06-09T15:06:24.275Z,49.40
2017-06-09T15:08:52.378Z,50.30
2017-06-09T15:11:20.479Z,50.90
2017-06-09T15:13:48.638Z,51.60
2017-06-09T15:16:16.715Z,52.30
2017-06-09T15:18:44.796Z,51.30
2017-06-09T15:21:12.885Z,52.60
2017-06-09T15:23:40.972Z,51.70
2017-06-09T15:26:09.053Z,52.60
2017-06-09T15:28:37.127Z,52.60
2017-06-09T15:31:05.219Z,52.90
2017-06-09T15:33:33.328Z,52.30
2017-06-09T15:36:01.419Z,52.30
2017-06-09T15:38:29.498Z,50.90
2017-06-09T15:40:57.607Z,51.00
2017-06-09T15:43:25.679Z,51.20
2017-06-09T15:45:53.782Z,51.40
2017-06-09T15:48:21.867Z,52.50
2017-06-09T15:50:49.978Z,56.30
2017-06-09T15:53:18.090Z,59.60
2017-06-09T15:55:46.188Z,58.80
2017-06-09T15:58:14.269Z,59.50
2017-06-09T16:00:42.348Z,62.80
2017-06-09T16:03:10.430Z,62.20
2017-06-09T16:05:38.504Z,65.60
2017-06-09T16:08:06.583Z,66.20
2017-06-09T16:10:34.656Z,67.40
2017-06-09T16:13:02.744Z,67.50
2017-06-09T16:15:30.838Z,69.00
2017-06-09T16:17:58.936Z,65.60
2017-06-09T16:20:27.028Z,65.10
2017-06-09T16:22:55.109Z,62.50
2017-06-09T16:25:23.198Z,60.90
2017-06-09T16:27:51.271Z,62.30
2017-06-09T16:30:19.369Z,61.60
2017-06-09T16:32:47.448Z,59.40
2017-06-09T16:35:15.557Z,62.30
2017-06-09T16:37:43.634Z,58.10
2017-06-09T16:40:11.758Z,59.10
2017-06-09T16:42:39.830Z,59.20
2017-06-09T16:45:07.909Z,60.50
2017-06-09T16:47:36.005Z,60.10
2017-06-09T16:50:04.087Z,60.40
2017-06-09T16:52:32.173Z,61.10
2017-06-09T16:55:00.256Z,62.70
2017-06-09T16:57:28.352Z,60.70
2017-06-09T16:59:56.458Z,60.70
2017-06-09T17:02:24.554Z,60.10
2017-06-09T17:04:52.648Z,61.40
2017-06-09T17:07:20.784Z,60.90
2017-06-09T17:09:48.890Z,59.40
2017-06-09T17:12:16.971Z,60.20
2017-06-09T17:14:45.056Z,60.10
2017-06-09T17:17:13.136Z,59.70
2017-06-09T17:19:41.254Z,59.20
2017-06-09T17:22:09.340Z,58.80
2017-06-09T17:24:37.635Z,58.10
2017-06-09T17:27:05.725Z,59.40
2017-06-09T17:29:33.799Z,58.90
2017-06-09T17:32:01.892Z,59.40
2017-06-09T17:34:29.963Z,59.60
2017-06-09T17:36:58.056Z,60.00
2017-06-09T17:39:26.139Z,61.40
2017-06-09T17:41:54.232Z,60.10
2017-06-09T17:44:22.324Z,61.40
2017-06-09T17:46:50.451Z,61.60
2017-06-09T17:49:18.530Z,61.40
2017-06-09T17:51:46.612Z,61.70
2017-06-09T17:54:14.708Z,60.50
2017-06-09T17:56:42.783Z,61.40
2017-06-09T17:59:10.879Z,60.80
2017-06-09T18:01:38.963Z,60.50
2017-06-09T18:04:07.109Z,61.20
2017-06-09T18:06:35.187Z,61.00
2017-06-09T18:09:03.288Z,61.00
2017-06-09T18:11:31.365Z,62.80
2017-06-09T18:13:59.480Z,62.50
2017-06-09T18:16:27.547Z,63.30
2017-06-09T18:18:55.631Z,62.90
2017-06-09T18:21:23.737Z,61.40
2017-06-09T18:23:51.992Z,61.20
2017-06-09T18:26:20.267Z,61.10
2017-06-09T18:28:48.434Z,61.50
2017-06-09T18:31:16.514Z,61.10
2017-06-09T18:33:45.452Z,63.10
2017-06-09T18:36:34.307Z,63.80
2017-06-09T18:39:02.396Z,65.00
2017-06-09T18:41:31.399Z,66.30
2017-06-09T18:43:59.485Z,67.30
2017-06-09T18:46:27.568Z,66.20
2017-06-09T18:48:55.649Z,66.30
2017-06-09T18:51:23.732Z,65.50
2017-06-09T18:53:51.932Z,66.30
2017-06-09T18:56:20.016Z,63.50
2017-06-09T18:58:48.122Z,64.90
2017-06-09T19:01:16.202Z,67.00
2017-06-09T19:03:44.274Z,69.50
2017-06-09T19:06:12.365Z,68.50
2017-06-09T19:08:40.470Z,67.60
2017-06-09T19:11:08.555Z,67.80
2017-06-09T19:13:36.704Z,68.00
2017-06-09T19:16:04.980Z,70.00
2017-06-09T19:18:33.221Z,69.90
2017-06-09T19:21:01.336Z,69.40
2017-06-09T19:23:29.434Z,70.10
2017-06-09T19:25:57.717Z,69.70
2017-06-09T19:28:25.911Z,70.10
2017-06-09T19:30:54.023Z,69.40
2017-06-09T19:33:22.112Z,67.50
2017-06-09T19:35:50.196Z,69.20
2017-06-09T19:38:18.288Z,69.60
2017-06-09T19:40:46.372Z,70.50
2017-06-09T19:43:14.576Z,66.00
2017-06-09T19:45:42.653Z,59.80
2017-06-09T19:48:10.743Z,59.90
2017-06-09T19:50:38.850Z,66.40
2017-06-09T19:53:06.929Z,71.60
2017-06-09T19:55:35.027Z,78.80
2017-06-09T19:58:03.111Z,83.00
2017-06-09T20:00:31.201Z,86.10
2017-06-09T20:02:59.290Z,85.90
2017-06-09T20:05:27.382Z,86.40
2017-06-09T20:07:55.466Z,84.90
2017-06-09T20:10:23.573Z,90.80
2017-06-09T20:12:51.675Z,89.30
2017-06-09T20:15:19.928Z,88.50
2017-06-09T20:17:48.047Z,90.00
2017-06-09T20:20:16.221Z,87.30
2017-06-09T20:22:44.478Z,89.30
2017-06-09T20:25:12.799Z,90.70
2017-06-09T20:27:41.683Z,90.00
2017-06-09T20:30:09.777Z,86.60
2017-06-09T20:32:37.887Z,90.10
2017-06-09T20:35:06.036Z,89.70
2017-06-09T20:37:34.127Z,91.20
2017-06-09T20:40:02.239Z,90.10
2017-06-09T20:42:30.341Z,89.40
2017-06-09T20:44:59.247Z,90.20
2017-06-09T20:47:27.339Z,87.40
2017-06-09T20:49:55.421Z,85.80
2017-06-09T20:52:23.519Z,86.20
2017-06-09T20:54:51.600Z,84.60
2017-06-09T20:57:19.691Z,87.00
2017-06-09T20:59:47.783Z,85.00
2017-06-09T21:02:15.876Z,86.10
2017-06-09T21:04:43.973Z,86.40
2017-06-09T21:07:12.075Z,89.30
2017-06-09T21:09:40.161Z,90.00
2017-06-09T21:12:08.237Z,90.70
2017-06-09T21:14:36.338Z,88.50
2017-06-09T21:17:04.415Z,90.10
2017-06-09T21:19:32.495Z,90.40
2017-06-09T21:22:00.576Z,88.90
2017-06-09T21:24:28.694Z,89.10
2017-06-09T21:26:56.834Z,90.50
2017-06-09T21:29:24.919Z,90.40
2017-06-09T21:31:53.005Z,90.70
2017-06-09T21:34:21.079Z,90.10
2017-06-09T21:36:49.159Z,89.40
2017-06-09T21:39:17.271Z,90.00
2017-06-09T21:41:45.336Z,89.20
2017-06-09T21:44:13.556Z,88.10
2017-06-09T21:46:41.660Z,88.10
2017-06-09T21:49:09.757Z,89.90
2017-06-09T21:51:37.844Z,91.80
2017-06-09T21:54:05.936Z,91.60
2017-06-09T21:56:34.011Z,91.60
2017-06-09T21:59:02.080Z,91.70
2017-06-09T22:01:30.180Z,91.60
2017-06-09T22:03:58.276Z,91.60
2017-06-09T22:06:26.365Z,91.10
2017-06-09T22:08:54.443Z,91.40
2017-06-09T22:11:22.540Z,92.30
2017-06-09T22:13:50.719Z,91.60
2017-06-09T22:16:18.818Z,92.50
2017-06-09T22:18:46.909Z,92.50
2017-06-09T22:21:14.999Z,91.30
2017-06-09T22:23:43.091Z,91.90
2017-06-09T22:26:11.171Z,91.80
2017-06-09T22:28:39.263Z,92.50
2017-06-09T22:31:07.347Z,91.90
2017-06-09T22:33:35.436Z,90.80
2017-06-09T22:36:03.513Z,90.10
2017-06-09T22:38:31.613Z,90.50
2017-06-09T22:40:59.691Z,90.90
2017-06-09T22:43:27.790Z,92.10
2017-06-09T22:45:55.885Z,92.30
2017-06-09T22:48:23.966Z,92.60
2017-06-09T22:50:52.047Z,93.30
2017-06-09T22:53:20.136Z,93.20
2017-06-09T22:55:48.217Z,93.90
2017-06-09T22:58:16.295Z,93.80
2017-06-09T23:00:44.388Z,93.90
2017-06-09T23:03:12.464Z,93.30
2017-06-09T23:05:40.551Z,93.50
2017-06-09T23:08:08.640Z,93.40
2017-06-09T23:10:36.721Z,92.80
2017-06-09T23:13:04.808Z,92.60
2017-06-09T23:15:32.895Z,92.90
2017-06-09T23:18:00.993Z,93.20
2017-06-09T23:20:29.076Z,93.10
2017-06-09T23:22:57.194Z,92.90
2017-06-09T23:25:25.276Z,93.00
2017-06-09T23:28:08.255Z,93.40
2017-06-09T23:30:36.346Z,93.10
2017-06-09T23:33:04.431Z,93.30
2017-06-09T23:35:32.519Z,93.30
2017-06-09T23:38:00.607Z,93.10
2017-06-09T23:40:28.701Z,93.20
2017-06-09T23:42:56.794Z,93.20
2017-06-09T23:45:24.855Z,93.30
2017-06-09T23:47:52.945Z,93.00
2017-06-09T23:50:21.051Z,92.80
2017-06-09T23:52:49.136Z,93.10
2017-06-09T23:55:17.221Z,93.10
2017-06-09T23:57:45.304Z,93.20
